Welcome to our new website - Welkom op onze vernieuwde website - Bienvenue sur notre nouveau site web - Willkommen auf unserer neuen Website
Check our progress frequently. Prüfen Sie unsere Fortschritte regelmäßig. Consultez notre progression fréquemment. Komt u straks nog eens terug

Bezoek ook deze websites:

Template documentation
and downloads

And another site



Het weer levert geen direct gevaar op.    Er zijn geen waarschuwingen afgegeven.

METAR rapporten vliegvelden

   
EHDL - Deelen Rnlafb, Netherlands
Afstand tot: ZW 55 km
Gewijzigd: 22-10-2021 16:55
Grotendeels bewolkt  
Grotendeels bewolkt  
   Wind: WNW 14.8 km/h
Wind: WNW 14.8 km/h
Temperatuur: 10°C
Voelt als: 8°C
Dauwpunt: 9°C
Vochtigheid: 94%
Barometer: 1016 hPa
Bewolking: Grotendeels bewolkt
Zicht: meer dan 10 km
Bewolking: Gedeeltelijk bewolkt 3300 ft,
Gedeeltelijk bewolkt 4400 ft,
Grotendeels bewolkt 5200 ft
EHDL 221455Z AUTO 29008KT 220V020 9999 SCT033 SCT044 BKN052 10/09 Q1016 BLU
EHLE - Lelystad, Netherlands
Afstand tot: W 64 km
Gewijzigd: 22-10-2021 16:55
Gedeeltelijk bewolkt  
Gedeeltelijk bewolkt  
   Wind: WNW 16.7 km/h
Wind: WNW 16.7 km/h
Temperatuur: 11°C
Dauwpunt: 7°C
Vochtigheid: 77%
Barometer: 1016 hPa
Bewolking: Gedeeltelijk bewolkt
Zicht: meer dan 10 km
Bewolking: Gedeeltelijk bewolkt
EHLE 221455Z AUTO 30009KT 270V350 9999 NSC 11/07 Q1016 TEMPO 7000 -SHRA FEW025CB
ETWM - Meppen, Germany
Afstand tot: ONO 69 km
Gewijzigd: 22-10-2021 16:20
  
  
   Wind: Westen 14.8 km/h
Wind: Westen 14.8 km/h
Temperatuur: 10°C
Voelt als: 8°C
Dauwpunt: 7°C
Vochtigheid: 82%
Barometer: 1012 hPa
ETWM 221420Z AUTO 28008KT //// // ////// 10/07 Q1012 ///
EHGG - Groningen/Eelde, Netherlands
Afstand tot: N 79 km
Gewijzigd: 22-10-2021 16:55
Licht bewolkt  
Licht bewolkt  
   Wind: WNW 22.2 km/h
Wind: WNW 22.2 km/h
Temperatuur: 11°C
Dauwpunt: 3°C
Vochtigheid: 58%
Barometer: 1013 hPa
Bewolking: Licht bewolkt
Zicht: meer dan 10 km
Bewolking: Licht bewolkt 3800 ft
EHGG 221455Z AUTO 30012KT 260V340 9999 FEW038 11/03 Q1013 TEMPO 7000 -SHRA FEW030TCU
EDDG - Muenster/Osnabru, Germany
Afstand tot: OZO 90 km
Gewijzigd: 22-10-2021 16:50
Grotendeels bewolkt  
Grotendeels bewolkt  
   Wind: Westen 22.2 km/h
Wind: Westen 22.2 km/h
Temperatuur: 9°C
Voelt als: 6°C
Dauwpunt: 7°C
Vochtigheid: 87%
Barometer: 1014 hPa
Bewolking: Grotendeels bewolkt
Zicht: meer dan 10 km
Bewolking: Licht bewolkt 3000 ft,
Grotendeels bewolkt 4900 ft
EDDG 221450Z 26012KT 9999 FEW030 BKN049 09/07 Q1014 NOSIG
EDLV - Niederrhein, Germany
Afstand tot: ZZW 92 km
Gewijzigd: 22-10-2021 16:50
Light Showers, Regen, Grotendeels bewolkt  
Light Showers, Regen, Grotendeels bewolkt  
   Wind: WZW 31.5 km/h
Wind: WZW 31.5 km/h
Temperatuur: 11°C
Dauwpunt: 8°C
Vochtigheid: 82%
Barometer: 1016 hPa
Bewolking: Grotendeels bewolkt
Zicht: meer dan 10 km
Bewolking: Grotendeels bewolkt 1600 ft
EDLV 221450Z 25017KT 9999 -SHRA BKN016TCU 11/08 Q1016

Script ontwikkeld door  Saratoga-weather.org Aangepast voor de template door  Weerstation Leuven

U vindt ons ook hier:

Het Weer Aktueel

European Weather Network

Weather Underground

Benelux Weer Netwerk

Apparatuur in gebruik:

Weerstation
Davis VP2

Weerprogramma
Meteobridge

Weercomputer
Meteobridge Pro+

Webleverancier
vip.nl

Davis VP2

Meteobridge

Meteobridge Pro+

vip.nl